createdAt,value
2022-11-23T00:01:30.577Z,99691.03
2022-11-23T00:04:00.254Z,99685.63
2022-11-23T00:06:26.955Z,99689.59
2022-11-23T00:08:54.312Z,99691.19
2022-11-23T00:11:23.043Z,99694.22
2022-11-23T00:13:49.764Z,99706.63
2022-11-23T00:16:19.237Z,99704.22
2022-11-23T00:18:45.712Z,99701.53
2022-11-23T00:21:15.075Z,99702.63
2022-11-23T00:23:41.809Z,99695.78
2022-11-23T00:26:08.599Z,99705.84
2022-11-23T00:28:38.625Z,99703.91
2022-11-23T00:31:06.501Z,99702.81
2022-11-23T00:33:33.239Z,99693.56
2022-11-23T00:36:08.563Z,99691.00
2022-11-23T00:38:35.035Z,99695.28
2022-11-23T00:41:10.913Z,99693.41
2022-11-23T00:43:37.320Z,99691.66
2022-11-23T00:46:10.136Z,99696.25
2022-11-23T00:48:37.602Z,99698.03
2022-11-23T00:51:07.162Z,99698.16
2022-11-23T00:53:34.226Z,99704.84
2022-11-23T00:56:00.754Z,99708.22
2022-11-23T00:58:27.571Z,99714.88
2022-11-23T01:01:09.601Z,99701.81
2022-11-23T01:03:38.722Z,99704.53
2022-11-23T01:06:16.786Z,99704.53
2022-11-23T01:08:43.668Z,99710.28
2022-11-23T01:11:12.573Z,99708.38
2022-11-23T01:13:40.858Z,99704.72
2022-11-23T01:16:13.058Z,99715.03
2022-11-23T01:18:39.460Z,99711.84
2022-11-23T01:21:06.104Z,99711.19
2022-11-23T01:23:32.571Z,99704.66
2022-11-23T01:26:05.689Z,99700.03
2022-11-23T01:28:32.547Z,99705.00
2022-11-23T01:31:14.818Z,99712.00
2022-11-23T01:33:41.535Z,99713.88
2022-11-23T01:36:19.964Z,99710.09
2022-11-23T01:38:47.869Z,99708.94
2022-11-23T01:41:17.558Z,99704.81
2022-11-23T01:43:44.655Z,99721.06
2022-11-23T01:46:12.085Z,99718.34
2022-11-23T01:48:46.848Z,99723.28
2022-11-23T01:51:16.647Z,99720.91
2022-11-23T01:53:44.386Z,99718.97
2022-11-23T01:56:15.403Z,99716.28
2022-11-23T01:58:46.282Z,99719.31
2022-11-23T02:01:14.358Z,99725.66
2022-11-23T02:03:43.453Z,99719.78
2022-11-23T02:06:16.366Z,99723.78
2022-11-23T02:08:43.770Z,99725.53
2022-11-23T02:11:12.742Z,99724.69
2022-11-23T02:13:39.777Z,99714.50
2022-11-23T02:16:06.362Z,99716.88
2022-11-23T02:18:35.624Z,99699.50
2022-11-23T02:21:03.424Z,99698.75
2022-11-23T02:23:47.812Z,99704.16
2022-11-23T02:26:44.027Z,99706.06
2022-11-23T02:29:16.184Z,99700.44
2022-11-23T02:31:42.577Z,99709.56
2022-11-23T02:34:09.127Z,99709.94
2022-11-23T02:36:47.431Z,99691.47
2022-11-23T02:39:18.552Z,99705.44
2022-11-23T02:41:48.807Z,99711.84
2022-11-23T02:44:44.223Z,99713.88
2022-11-23T02:47:11.677Z,99720.13
2022-11-23T02:49:40.698Z,99711.66
2022-11-23T02:52:08.298Z,99713.56
2022-11-23T02:54:35.220Z,99712.00
2022-11-23T02:57:01.782Z,99712.47
2022-11-23T02:59:29.278Z,99710.09
2022-11-23T03:01:55.956Z,99714.69
2022-11-23T03:04:27.534Z,99707.38
2022-11-23T03:06:54.406Z,99711.84
2022-11-23T03:09:20.839Z,99714.38
2022-11-23T03:11:47.287Z,99714.84
2022-11-23T03:14:13.721Z,99716.88
2022-11-23T03:16:40.085Z,99714.84
2022-11-23T03:19:06.533Z,99719.28
2022-11-23T03:21:32.957Z,99719.28
2022-11-23T03:23:59.365Z,99725.50
2022-11-23T03:26:25.801Z,99726.59
2022-11-23T03:28:52.186Z,99725.63
2022-11-23T03:31:18.556Z,99726.53
2022-11-23T03:33:44.956Z,99724.81
2022-11-23T03:36:11.369Z,99725.31
2022-11-23T03:38:37.725Z,99728.00
2022-11-23T03:41:04.138Z,99722.25
2022-11-23T03:43:30.558Z,99724.50
2022-11-23T03:45:56.976Z,99725.75
2022-11-23T03:48:23.459Z,99734.66
2022-11-23T03:50:49.874Z,99733.44
2022-11-23T03:53:16.324Z,99727.34
2022-11-23T03:55:42.688Z,99728.34
2022-11-23T03:58:09.126Z,99725.41
2022-11-23T04:00:35.658Z,99726.88
2022-11-23T04:03:02.231Z,99730.38
2022-11-23T04:05:28.777Z,99725.88
2022-11-23T04:07:55.186Z,99721.13
2022-11-23T04:10:21.959Z,99727.03
2022-11-23T04:12:54.220Z,99725.56
2022-11-23T04:15:20.865Z,99724.97
2022-11-23T04:17:47.457Z,99718.91
2022-11-23T04:20:14.798Z,99719.22
2022-11-23T04:22:41.343Z,99717.00
2022-11-23T04:25:08.300Z,99718.09
2022-11-23T04:27:34.726Z,99727.34
2022-11-23T04:30:01.119Z,99727.03
2022-11-23T04:32:27.540Z,99727.03
2022-11-23T04:34:53.973Z,99722.06
2022-11-23T04:37:20.369Z,99724.44
2022-11-23T04:39:46.794Z,99723.31
2022-11-23T04:42:14.000Z,99726.38
2022-11-23T04:44:40.392Z,99726.03
2022-11-23T04:47:07.488Z,99722.31
2022-11-23T04:49:34.185Z,99729.69
2022-11-23T04:52:00.816Z,99735.41
2022-11-23T04:54:27.207Z,99725.84
2022-11-23T04:56:54.205Z,99736.19
2022-11-23T04:59:22.097Z,99737.47
2022-11-23T05:01:49.336Z,99737.47
2022-11-23T05:04:17.937Z,99738.59
2022-11-23T05:06:45.193Z,99738.25
2022-11-23T05:09:11.868Z,99737.34
2022-11-23T05:11:38.413Z,99741.94
2022-11-23T05:14:05.053Z,99738.09
2022-11-23T05:16:31.437Z,99732.06
2022-11-23T05:18:57.809Z,99729.34
2022-11-23T05:21:24.181Z,99722.47
2022-11-23T05:23:50.644Z,99718.63
2022-11-23T05:26:17.072Z,99724.03
2022-11-23T05:28:43.465Z,99723.94
2022-11-23T05:31:10.202Z,99732.06
2022-11-23T05:33:36.904Z,99727.56
2022-11-23T05:36:03.734Z,99729.78
2022-11-23T05:38:30.138Z,99729.03
2022-11-23T05:40:56.559Z,99734.56
2022-11-23T05:43:22.944Z,99734.56
2022-11-23T05:45:49.788Z,99730.41
2022-11-23T05:48:16.284Z,99735.16
2022-11-23T05:50:42.683Z,99739.19
2022-11-23T05:53:09.870Z,99737.72
2022-11-23T05:55:36.396Z,99751.28
2022-11-23T05:58:03.729Z,99748.91
2022-11-23T06:00:30.212Z,99758.31
2022-11-23T06:03:01.513Z,99757.16
2022-11-23T06:05:29.005Z,99750.94
2022-11-23T06:07:55.926Z,99753.81
2022-11-23T06:10:23.047Z,99748.91
2022-11-23T06:12:50.028Z,99753.66
2022-11-23T06:15:17.896Z,99759.56
2022-11-23T06:17:44.639Z,99758.31
2022-11-23T06:20:11.406Z,99757.03
2022-11-23T06:22:37.792Z,99757.34
2022-11-23T06:25:04.420Z,99755.13
2022-11-23T06:27:30.860Z,99762.91
2022-11-23T06:29:57.296Z,99758.31
2022-11-23T06:32:23.705Z,99764.06
2022-11-23T06:34:50.139Z,99762.72
2022-11-23T06:37:16.637Z,99765.28
2022-11-23T06:39:43.124Z,99772.94
2022-11-23T06:42:38.558Z,99768.00
2022-11-23T06:44:55.957Z,99778.97
2022-11-23T06:47:26.445Z,99782.16
2022-11-23T06:49:53.126Z,99789.81
2022-11-23T06:52:19.612Z,99788.88
2022-11-23T06:54:46.410Z,99781.22
2022-11-23T06:57:13.016Z,99787.13
2022-11-23T06:59:44.315Z,99787.88
2022-11-23T07:02:12.132Z,99792.28
2022-11-23T07:04:38.537Z,99787.19
2022-11-23T07:07:05.114Z,99797.94
2022-11-23T07:09:31.841Z,99791.44
2022-11-23T07:11:58.500Z,99793.19
2022-11-23T07:14:24.892Z,99794.63
2022-11-23T07:16:51.596Z,99792.88
2022-11-23T07:19:17.960Z,99792.19
2022-11-23T07:21:45.718Z,99794.91
2022-11-23T07:24:12.181Z,99791.53
2022-11-23T07:26:38.574Z,99798.53
2022-11-23T07:29:05.022Z,99798.53
2022-11-23T07:31:31.496Z,99796.63
2022-11-23T07:33:57.928Z,99798.53
2022-11-23T07:36:24.732Z,99804.91
2022-11-23T07:38:51.133Z,99810.56
2022-11-23T07:41:17.571Z,99808.53
2022-11-23T07:43:43.970Z,99817.13
2022-11-23T07:46:10.350Z,99815.56
2022-11-23T07:48:36.894Z,99820.66
2022-11-23T07:51:03.572Z,99817.94
2022-11-23T07:53:30.248Z,99815.38
2022-11-23T07:56:00.582Z,99816.63
2022-11-23T07:58:27.366Z,99814.03
2022-11-23T08:00:53.792Z,99818.19
2022-11-23T08:03:27.685Z,99816.44
2022-11-23T08:05:54.783Z,99821.03
2022-11-23T08:08:21.186Z,99815.09
2022-11-23T08:10:53.000Z,99818.16
2022-11-23T08:13:20.962Z,99825.41
2022-11-23T08:15:53.231Z,99830.19
2022-11-23T08:18:21.645Z,99826.03
2022-11-23T08:20:48.159Z,99827.28
2022-11-23T08:23:14.606Z,99825.84
2022-11-23T08:25:41.069Z,99829.47
2022-11-23T08:28:07.525Z,99835.34
2022-11-23T08:30:34.421Z,99833.22
2022-11-23T08:33:08.272Z,99835.50
2022-11-23T08:35:36.502Z,99842.31
2022-11-23T08:38:03.997Z,99836.06
2022-11-23T08:40:31.130Z,99835.28
2022-11-23T08:42:57.563Z,99841.50
2022-11-23T08:45:24.461Z,99840.25
2022-11-23T08:47:51.368Z,99839.25
2022-11-23T08:50:18.114Z,99834.97
2022-11-23T08:52:44.624Z,99833.34
2022-11-23T08:55:11.591Z,99837.69
2022-11-23T08:57:38.420Z,99833.34
2022-11-23T09:00:05.852Z,99838.13
2022-11-23T09:02:32.353Z,99844.00
2022-11-23T09:04:58.800Z,99846.19
2022-11-23T09:07:25.241Z,99836.72
2022-11-23T09:09:51.656Z,99834.69
2022-11-23T09:12:18.071Z,99848.38
2022-11-23T09:14:44.464Z,99847.91
2022-11-23T09:17:10.900Z,99840.81
2022-11-23T09:19:37.262Z,99851.41
2022-11-23T09:22:03.710Z,99844.41
2022-11-23T09:24:30.252Z,99843.38
2022-11-23T09:26:56.913Z,99846.78
2022-11-23T09:29:25.318Z,99846.09
2022-11-23T09:31:51.809Z,99842.72
2022-11-23T09:34:18.204Z,99848.75
2022-11-23T09:36:44.598Z,99846.75
2022-11-23T09:39:11.712Z,99847.09
2022-11-23T09:41:50.176Z,99852.75
2022-11-23T09:44:55.354Z,99855.25
2022-11-23T09:47:28.835Z,99851.44
2022-11-23T09:50:03.143Z,99846.78
2022-11-23T09:52:30.754Z,99845.00
2022-11-23T09:55:03.226Z,99849.28
2022-11-23T09:57:33.658Z,99851.91
2022-11-23T10:00:29.365Z,99838.78
2022-11-23T10:02:55.795Z,99847.38
2022-11-23T10:05:25.357Z,99852.72
2022-11-23T10:08:13.227Z,99850.81
2022-11-23T10:10:44.397Z,99846.19
2022-11-23T10:13:28.793Z,99846.06
2022-11-23T10:16:21.230Z,99847.06
2022-11-23T10:19:15.460Z,99843.47
2022-11-23T10:22:20.028Z,99838.94
2022-11-23T10:24:50.851Z,99836.31
2022-11-23T10:27:20.666Z,99838.34
2022-11-23T10:29:48.860Z,99837.03
2022-11-23T10:32:31.119Z,99828.06
2022-11-23T10:35:04.122Z,99829.31
2022-11-23T10:37:32.162Z,99830.91
2022-11-23T10:39:58.777Z,99834.97
2022-11-23T10:42:32.176Z,99837.34
2022-11-23T10:45:00.965Z,99829.75
2022-11-23T10:47:39.193Z,99827.28
2022-11-23T10:50:27.554Z,99836.31
2022-11-23T10:52:57.850Z,99833.53
2022-11-23T10:55:28.548Z,99835.31
2022-11-23T10:57:56.132Z,99832.94
2022-11-23T11:00:30.043Z,99835.91
2022-11-23T11:02:58.687Z,99828.72
2022-11-23T11:06:07.096Z,99839.72
2022-11-23T11:08:20.903Z,99838.50
2022-11-23T11:10:58.979Z,99834.41
2022-11-23T11:13:41.785Z,99830.34
2022-11-23T11:16:35.864Z,99835.63
2022-11-23T11:19:36.010Z,99833.72
2022-11-23T11:22:24.485Z,99840.41
2022-11-23T11:24:51.284Z,99833.97
2022-11-23T11:27:22.742Z,99829.75
2022-11-23T11:29:52.737Z,99837.13
2022-11-23T11:32:38.722Z,99835.53
2022-11-23T11:35:26.922Z,99831.09
2022-11-23T11:38:00.002Z,99827.94
2022-11-23T11:40:33.317Z,99828.38
2022-11-23T11:43:02.640Z,99829.53
2022-11-23T11:45:38.602Z,99831.31
2022-11-23T11:48:14.876Z,99836.75
2022-11-23T11:50:53.661Z,99833.25
2022-11-23T11:53:53.211Z,99834.63
2022-11-23T11:56:30.274Z,99839.81
2022-11-23T11:59:23.852Z,99838.91
2022-11-23T12:01:50.200Z,99835.16
2022-11-23T12:04:35.711Z,99838.78
2022-11-23T12:07:09.606Z,99833.34
2022-11-23T12:09:42.391Z,99841.94
2022-11-23T12:12:16.054Z,99836.59
2022-11-23T12:14:43.349Z,99835.03
2022-11-23T12:17:33.548Z,99829.69
2022-11-23T12:20:24.418Z,99831.38
2022-11-23T12:23:18.979Z,99828.22
2022-11-23T12:25:58.573Z,99830.59
2022-11-23T12:28:52.682Z,99826.06
2022-11-23T12:32:04.297Z,99830.44
2022-11-23T12:34:48.367Z,99833.28
2022-11-23T12:37:31.375Z,99829.41
2022-11-23T12:40:11.074Z,99834.97
2022-11-23T12:43:12.707Z,99834.16
2022-11-23T12:45:48.381Z,99832.69
2022-11-23T12:48:20.650Z,99834.63
2022-11-23T12:50:59.020Z,99826.56
2022-11-23T12:53:42.723Z,99831.91
2022-11-23T12:56:47.335Z,99824.44
2022-11-23T12:59:17.289Z,99835.75
2022-11-23T13:01:53.416Z,99831.78
2022-11-23T13:04:37.510Z,99833.28
2022-11-23T13:07:49.458Z,99836.00
2022-11-23T13:10:35.233Z,99836.44
2022-11-23T13:13:16.223Z,99843.38
2022-11-23T13:16:05.298Z,99837.81
2022-11-23T13:19:13.241Z,99838.63
2022-11-23T13:21:44.452Z,99839.41
2022-11-23T13:24:31.542Z,99837.81
2022-11-23T13:27:31.434Z,99839.06
2022-11-23T13:30:01.466Z,99833.63
2022-11-23T13:32:40.390Z,99836.00
2022-11-23T13:35:18.775Z,99831.69
2022-11-23T13:37:54.283Z,99832.25
2022-11-23T13:40:22.499Z,99830.66
2022-11-23T13:42:51.947Z,99829.66
2022-11-23T13:45:25.880Z,99832.47
2022-11-23T13:48:55.445Z,99836.00
2022-11-23T13:51:06.309Z,99832.81
2022-11-23T13:53:42.950Z,99829.31
2022-11-23T13:56:29.166Z,99829.41
2022-11-23T13:58:59.028Z,99835.19
2022-11-23T14:02:03.121Z,99831.25
2022-11-23T14:04:48.193Z,99835.91
2022-11-23T14:07:27.364Z,99836.13
2022-11-23T14:10:21.341Z,99831.50
2022-11-23T14:13:08.582Z,99831.16
2022-11-23T14:15:38.780Z,99833.06
2022-11-23T14:18:32.826Z,99828.31
2022-11-23T14:21:14.735Z,99832.84
2022-11-23T14:24:15.719Z,99835.25
2022-11-23T14:26:42.395Z,99837.50
2022-11-23T14:29:17.915Z,99835.91
2022-11-23T14:32:02.636Z,99835.13
2022-11-23T14:34:37.794Z,99837.00
2022-11-23T14:37:22.425Z,99837.75
2022-11-23T14:40:03.112Z,99848.63
2022-11-23T14:42:31.056Z,99847.53
2022-11-23T14:45:03.937Z,99845.56
2022-11-23T14:47:32.073Z,99839.25
2022-11-23T14:49:58.900Z,99849.44
2022-11-23T14:52:31.811Z,99844.81
2022-11-23T14:55:01.572Z,99845.56
2022-11-23T14:57:46.645Z,99843.88
2022-11-23T15:00:43.941Z,99849.44
2022-11-23T15:03:48.682Z,99848.22
2022-11-23T15:06:12.730Z,99850.25
2022-11-23T15:08:50.429Z,99845.03
2022-11-23T15:11:27.349Z,99841.06
2022-11-23T15:14:04.671Z,99840.28
2022-11-23T15:16:40.049Z,99846.41
2022-11-23T15:19:27.569Z,99848.78
2022-11-23T15:21:55.513Z,99841.31
2022-11-23T15:24:28.526Z,99844.47
2022-11-23T15:27:12.068Z,99855.00
2022-11-23T15:29:39.835Z,99849.22
2022-11-23T15:32:32.655Z,99842.88
2022-11-23T15:35:06.795Z,99849.91
2022-11-23T15:37:41.511Z,99850.59
2022-11-23T15:40:13.636Z,99849.81
2022-11-23T15:42:40.892Z,99859.22
2022-11-23T15:45:33.955Z,99855.34
2022-11-23T15:48:05.117Z,99860.69
2022-11-23T15:50:34.293Z,99863.72
2022-11-23T15:53:01.835Z,99866.34
2022-11-23T15:55:30.150Z,99864.63
2022-11-23T15:57:57.275Z,99871.47
2022-11-23T16:00:26.158Z,99862.25
2022-11-23T16:02:53.047Z,99863.41
2022-11-23T16:05:23.806Z,99866.47
2022-11-23T16:08:01.357Z,99874.97
2022-11-23T16:10:33.403Z,99874.16
2022-11-23T16:13:01.918Z,99873.47
2022-11-23T16:15:37.585Z,99871.78
2022-11-23T16:18:25.174Z,99878.81
2022-11-23T16:20:55.971Z,99868.53
2022-11-23T16:23:28.727Z,99878.59
2022-11-23T16:25:59.395Z,99868.84
2022-11-23T16:28:38.172Z,99868.06
2022-11-23T16:31:05.091Z,99881.66
2022-11-23T16:33:31.600Z,99878.34
2022-11-23T16:35:58.280Z,99880.72
2022-11-23T16:38:25.750Z,99875.28
2022-11-23T16:40:52.361Z,99881.53
2022-11-23T16:43:19.044Z,99877.22
2022-11-23T16:45:47.750Z,99878.34
2022-11-23T16:48:26.134Z,99881.41
2022-11-23T16:50:57.005Z,99875.06
2022-11-23T16:53:26.750Z,99878.91
2022-11-23T16:55:54.557Z,99878.69
2022-11-23T16:58:22.157Z,99878.91
2022-11-23T17:00:49.580Z,99876.28
2022-11-23T17:03:17.441Z,99877.41
2022-11-23T17:05:43.908Z,99876.06
2022-11-23T17:08:10.510Z,99872.41
2022-11-23T17:10:38.942Z,99878.19
2022-11-23T17:13:11.180Z,99874.31
2022-11-23T17:15:37.989Z,99874.78
2022-11-23T17:18:04.526Z,99873.19
2022-11-23T17:20:31.132Z,99878.94
2022-11-23T17:23:00.948Z,99874.19
2022-11-23T17:25:27.835Z,99877.91
2022-11-23T17:27:54.354Z,99879.69
2022-11-23T17:30:22.273Z,99888.50
2022-11-23T17:32:49.560Z,99880.13
2022-11-23T17:35:16.847Z,99880.00
2022-11-23T17:37:43.446Z,99886.69
2022-11-23T17:40:21.421Z,99888.47
2022-11-23T17:42:48.005Z,99899.38
2022-11-23T17:45:14.862Z,99892.78
2022-11-23T17:47:43.073Z,99899.00
2022-11-23T17:50:13.804Z,99896.03
2022-11-23T17:52:45.066Z,99895.22
2022-11-23T17:55:12.702Z,99896.03
2022-11-23T17:57:39.246Z,99889.66
2022-11-23T18:00:12.180Z,99896.75
2022-11-23T18:02:38.596Z,99902.31
2022-11-23T18:05:05.291Z,99901.06
2022-11-23T18:07:31.794Z,99894.69
2022-11-23T18:09:58.343Z,99898.53
2022-11-23T18:12:24.741Z,99901.50
2022-11-23T18:14:51.227Z,99900.25
2022-11-23T18:17:18.826Z,99900.78
2022-11-23T18:19:45.248Z,99897.53
2022-11-23T18:22:11.640Z,99901.28
2022-11-23T18:24:38.166Z,99911.53
2022-11-23T18:27:04.633Z,99905.50
2022-11-23T18:29:31.489Z,99906.94
2022-11-23T18:31:58.057Z,99917.00
2022-11-23T18:34:24.507Z,99920.47
2022-11-23T18:36:51.012Z,99925.19
2022-11-23T18:39:17.425Z,99925.72
2022-11-23T18:41:43.834Z,99931.13
2022-11-23T18:44:10.418Z,99939.75
2022-11-23T18:46:36.901Z,99943.63
2022-11-23T18:49:03.544Z,99940.31
2022-11-23T18:51:29.985Z,99945.44
2022-11-23T18:53:57.686Z,99942.88
2022-11-23T18:56:24.166Z,99942.69
2022-11-23T18:58:50.730Z,99953.06
2022-11-23T19:01:19.790Z,99948.44
2022-11-23T19:03:49.003Z,99952.13
2022-11-23T19:06:17.610Z,99953.72
2022-11-23T19:08:50.205Z,99951.84
2022-11-23T19:11:27.370Z,99952.03
2022-11-23T19:13:56.445Z,99957.78
2022-11-23T19:16:25.186Z,99960.81
2022-11-23T19:18:59.342Z,99957.78
2022-11-23T19:21:28.601Z,99961.91
2022-11-23T19:23:56.767Z,99956.00
2022-11-23T19:26:24.173Z,99963.16
2022-11-23T19:28:51.936Z,99960.13
2022-11-23T19:31:23.809Z,99961.91
2022-11-23T19:33:52.396Z,99962.81
2022-11-23T19:36:21.907Z,99971.38
2022-11-23T19:38:49.253Z,99969.50
2022-11-23T19:41:16.995Z,99963.91
2022-11-23T19:43:43.448Z,99973.16
2022-11-23T19:46:12.647Z,99962.63
2022-11-23T19:48:40.285Z,99963.47
2022-11-23T19:51:11.745Z,99963.63
2022-11-23T19:53:39.949Z,99965.53
2022-11-23T19:56:30.340Z,99967.16
2022-11-23T19:58:58.595Z,99968.88
2022-11-23T20:01:31.993Z,99965.69
2022-11-23T20:04:08.012Z,99971.75
2022-11-23T20:06:37.147Z,99974.78
2022-11-23T20:09:09.705Z,99978.91
2022-11-23T20:11:38.794Z,99971.75
2022-11-23T20:14:06.112Z,99973.84
2022-11-23T20:16:33.576Z,99973.03
2022-11-23T20:19:02.632Z,99974.31
2022-11-23T20:21:30.754Z,99976.56
2022-11-23T20:24:05.242Z,99981.97
2022-11-23T20:26:33.428Z,99983.88
2022-11-23T20:29:00.488Z,99985.00
2022-11-23T20:31:29.138Z,99989.63
2022-11-23T20:33:56.577Z,99975.59
2022-11-23T20:36:28.683Z,99979.72
2022-11-23T20:38:56.242Z,99991.19
2022-11-23T20:41:28.522Z,99995.19
2022-11-23T20:43:57.407Z,99993.75
2022-11-23T20:46:53.604Z,99989.44
2022-11-23T20:49:12.089Z,99994.38
2022-11-23T20:51:38.784Z,99991.06
2022-11-23T20:54:07.354Z,99995.19
2022-11-23T20:56:33.875Z,99996.97
2022-11-23T20:59:00.611Z,99990.72
2022-11-23T21:01:28.057Z,99991.84
2022-11-23T21:03:59.396Z,100002.97
2022-11-23T21:06:26.817Z,100007.28
2022-11-23T21:08:54.611Z,100013.03
2022-11-23T21:11:45.277Z,100030.84
2022-11-23T21:14:17.768Z,100023.38
2022-11-23T21:16:55.071Z,100020.50
2022-11-23T21:19:24.301Z,100026.84
2022-11-23T21:21:50.839Z,100026.06
2022-11-23T21:24:17.656Z,100027.50
2022-11-23T21:26:44.171Z,100032.72
2022-11-23T21:29:11.428Z,100035.84
2022-11-23T21:31:40.176Z,100032.66
2022-11-23T21:34:10.404Z,100038.09
2022-11-23T21:36:41.380Z,100040.19
2022-11-23T21:39:10.420Z,100043.25
2022-11-23T21:41:37.980Z,100051.66
2022-11-23T21:44:09.220Z,100036.44
2022-11-23T21:46:40.392Z,100047.06
2022-11-23T21:49:07.944Z,100041.34
2022-11-23T21:51:35.559Z,100042.59
2022-11-23T21:54:05.406Z,100039.25
2022-11-23T21:56:32.335Z,100044.22
2022-11-23T21:58:59.316Z,100037.03
2022-11-23T22:01:29.542Z,100043.09
2022-11-23T22:03:59.946Z,100044.81
2022-11-23T22:06:26.609Z,100045.47
2022-11-23T22:08:55.091Z,100052.78
2022-11-23T22:11:27.140Z,100045.16
2022-11-23T22:13:56.499Z,100050.75
2022-11-23T22:16:26.321Z,100056.75
2022-11-23T22:18:55.792Z,100052.97
2022-11-23T22:21:24.934Z,100047.88
2022-11-23T22:23:51.502Z,100055.97
2022-11-23T22:26:19.341Z,100057.09
2022-11-23T22:28:48.067Z,100074.63
2022-11-23T22:31:18.019Z,100070.16
2022-11-23T22:33:46.006Z,100069.69
2022-11-23T22:36:15.078Z,100072.84
2022-11-23T22:38:42.170Z,100076.72
2022-11-23T22:41:14.149Z,100074.47
2022-11-23T22:43:40.991Z,100072.38
2022-11-23T22:46:13.232Z,100078.44
2022-11-23T22:48:42.822Z,100071.16
2022-11-23T22:51:11.806Z,100075.75
2022-11-23T22:53:44.582Z,100071.91
2022-11-23T22:56:21.075Z,100078.94
2022-11-23T22:58:48.655Z,100066.34
2022-11-23T23:01:17.963Z,100073.38
2022-11-23T23:03:45.257Z,100072.56
2022-11-23T23:06:17.196Z,100074.13
2022-11-23T23:08:44.056Z,100079.28
2022-11-23T23:11:10.659Z,100075.91
2022-11-23T23:13:37.410Z,100076.38
2022-11-23T23:16:07.337Z,100076.72
2022-11-23T23:18:34.329Z,100079.41
2022-11-23T23:21:10.915Z,100078.94
2022-11-23T23:23:43.097Z,100081.13
2022-11-23T23:26:10.627Z,100082.91
2022-11-23T23:28:37.380Z,100082.25
2022-11-23T23:31:06.614Z,100085.31
2022-11-23T23:33:33.773Z,100089.59
2022-11-23T23:36:08.171Z,100079.09
2022-11-23T23:38:36.221Z,100083.56
2022-11-23T23:41:02.899Z,100089.13
2022-11-23T23:43:29.755Z,100092.50
2022-11-23T23:45:58.960Z,100094.25
2022-11-23T23:48:28.558Z,100097.09
2022-11-23T23:50:55.604Z,100093.91
2022-11-23T23:53:22.238Z,100097.25
2022-11-23T23:55:59.540Z,100098.84
2022-11-23T23:58:26.091Z,100096.63
